Terminal Aerodrome Forecast
Issued by NWS

Home | Current Version | Previous Version | Text Only | Print | Product List | Glossary Off
Versions: 1 2 3 4 5 6 7 8 9 10 11 12 13 14 15 16 17 18 19 20 21 22

000
FTUS43 KICT 151740
TAFSLN
TAF
KSLN 151740Z 1518/1618 32026G35KT P6SM OVC025
      TEMPO 1518/1522 BKN018
     FM152300 33018G25KT P6SM BKN030
     FM160400 34015G20KT P6SM BKN025
     FM161400 35012KT P6SM SCT020 BKN035=

USA.gov is the U.S. government's official web portal to all federal, state and local government web resources and services.